Time;durP1;ratioP1;P1;durP2;ratioP2;P2;SDS_P1;SDS_P2;PMS_P1;PMS_P2;Temp;Humidity;BMP_temperature;BMP_pressure;BME280_temperature;BME280_humidity;BME280_pressure;Samples;Min_cycle;Max_cycle;Signal;HPM_P1;HPM_P2
2022/08/10 00:00:19;;;;;;;2.28;1.23;;;27.50;43.20;;;-147.20;100.00;58430.41;5112394;28;20062;-9
2022/08/10 00:02:53;;;;;;;1.00;1.00;;;27.40;43.20;;;-147.20;100.00;58430.41;5115226;28;20428;-9
2022/08/10 00:05:19;;;;;;;1.00;0.90;;;27.40;43.20;;;-147.20;100.00;58430.41;5116273;28;20131;-9
2022/08/10 00:07:46;;;;;;;1.20;1.15;;;27.40;43.20;;;-147.20;100.00;58430.41;5115867;28;20576;-11
2022/08/10 00:10:15;;;;;;;1.05;0.90;;;27.50;43.20;;;-147.20;100.00;58430.41;5097591;28;20138;-11
2022/08/10 00:12:42;;;;;;;1.98;0.90;;;27.40;43.10;;;-147.20;100.00;58430.41;5097964;28;20134;-11
2022/08/10 00:15:11;;;;;;;1.20;0.88;;;27.40;43.10;;;-147.20;100.00;58430.41;5115721;28;20048;-11
2022/08/10 00:17:37;;;;;;;1.13;1.10;;;27.40;43.10;;;-147.20;100.00;58430.41;5115452;28;20071;-12
2022/08/10 00:20:05;;;;;;;1.23;1.13;;;27.40;43.10;;;-147.20;100.00;58430.41;5115685;28;20126;-11
2022/08/10 00:22:31;;;;;;;1.95;1.10;;;27.40;43.10;;;-147.20;100.00;58430.41;5115622;28;20071;-11
2022/08/10 00:24:57;;;;;;;1.85;1.15;;;27.40;43.20;;;-147.20;100.00;58430.41;5115824;28;20469;-11
2022/08/10 00:27:24;;;;;;;0.80;0.80;;;27.40;43.20;;;-147.20;100.00;58430.41;5116102;28;20044;-11
2022/08/10 00:29:50;;;;;;;1.20;1.10;;;27.40;43.20;;;-147.20;100.00;58430.41;5115499;28;20495;-11
2022/08/10 00:32:17;;;;;;;1.10;1.00;;;27.40;43.10;;;-147.20;100.00;58430.41;5115502;28;20079;-10
2022/08/10 00:34:44;;;;;;;1.98;1.25;;;27.40;43.10;;;-147.20;100.00;58430.41;5115432;28;20500;-11
2022/08/10 00:37:13;;;;;;;1.33;1.00;;;27.40;43.10;;;-147.20;100.00;58430.41;5115282;28;20374;-12
2022/08/10 00:39:39;;;;;;;0.90;0.90;;;27.40;43.20;;;-147.20;100.00;58430.41;5115682;28;20137;-11
2022/08/10 00:42:07;;;;;;;1.10;1.00;;;27.40;43.20;;;-147.20;100.00;58430.41;5115002;28;20401;-11
2022/08/10 00:44:38;;;;;;;1.60;1.30;;;27.40;43.20;;;-147.20;100.00;58430.41;5115099;28;20081;-11
2022/08/10 00:47:05;;;;;;;1.08;1.00;;;27.40;43.20;;;-147.20;100.00;58430.41;5095179;28;20048;-11
2022/08/10 00:49:32;;;;;;;1.17;1.02;;;27.40;43.20;;;-147.20;100.00;58430.41;5094729;28;20132;-11
2022/08/10 00:51:58;;;;;;;1.00;0.88;;;27.40;43.20;;;-147.20;100.00;58430.41;5115104;28;20419;-11
2022/08/10 00:54:24;;;;;;;1.20;1.10;;;27.40;43.20;;;-147.20;100.00;58430.41;5095785;28;20063;-11
2022/08/10 00:56:50;;;;;;;0.93;0.90;;;27.40;43.20;;;-147.20;100.00;58430.41;5114703;28;20052;-12
2022/08/10 00:59:16;;;;;;;1.17;0.98;;;27.40;43.20;;;-147.20;100.00;58430.41;5084121;28;20493;-11
2022/08/10 01:01:42;;;;;;;1.15;1.05;;;27.40;43.20;;;-147.20;100.00;58430.41;5114775;28;20039;-11
2022/08/10 01:04:08;;;;;;;1.05;0.98;;;27.40;43.20;;;-147.20;100.00;58430.41;5114816;28;20120;-11
2022/08/10 01:06:55;;;;;;;1.23;1.13;;;27.40;43.20;;;-147.20;100.00;58430.41;5114815;28;20108;-11
2022/08/10 01:09:40;;;;;;;1.98;1.20;;;27.40;43.20;;;-147.20;100.00;58430.41;5096062;28;20135;-11
2022/08/10 01:12:34;;;;;;;1.33;1.23;;;27.40;43.20;;;-147.20;100.00;58430.41;5095833;28;20433;-11
2022/08/10 01:15:24;;;;;;;1.23;1.13;;;27.40;43.20;;;-147.20;100.00;58430.41;5113990;28;20205;-11
2022/08/10 01:18:04;;;;;;;1.40;1.30;;;27.40;43.20;;;-147.20;100.00;58430.41;5114612;28;20060;-11
2022/08/10 01:20:57;;;;;;;4.43;1.00;;;27.40;43.20;;;-147.20;100.00;58430.41;5096466;28;20044;-11
2022/08/10 01:24:24;;;;;;;1.17;1.00;;;27.40;43.30;;;-147.20;100.00;58430.41;5114696;28;20131;-11
2022/08/10 01:27:39;;;;;;;1.20;1.08;;;27.40;43.20;;;-147.20;100.00;58430.41;5114571;28;20145;-11
2022/08/10 01:30:13;;;;;;;1.00;0.90;;;27.40;43.20;;;-147.20;100.00;58430.41;5096304;28;20048;-11
2022/08/10 01:32:59;;;;;;;1.45;1.10;;;27.30;43.20;;;-147.20;100.00;58430.41;5114639;28;20051;-11
2022/08/10 01:35:59;;;;;;;1.30;1.20;;;27.40;43.30;;;-147.20;100.00;58430.41;5114434;28;20135;-11
2022/08/10 01:38:33;;;;;;;1.25;1.15;;;27.30;43.20;;;-147.20;100.00;58430.41;5095847;28;20078;-11
2022/08/10 01:41:10;;;;;;;1.40;1.27;;;27.30;43.20;;;-147.20;100.00;58430.41;5096287;28;20400;-11
2022/08/10 01:43:42;;;;;;;1.10;1.00;;;27.30;43.20;;;-147.20;100.00;58430.41;5095716;28;20097;-11
2022/08/10 01:46:11;;;;;;;1.08;1.00;;;27.30;43.30;;;-147.20;100.00;58430.41;5114390;28;20134;-11
2022/08/10 01:48:48;;;;;;;1.80;1.20;;;27.30;43.20;;;-147.20;100.00;58430.41;5114369;28;20531;-11
2022/08/10 01:51:29;;;;;;;1.02;0.95;;;27.30;43.30;;;-147.20;100.00;58430.41;5096302;28;20545;-11
2022/08/10 01:54:06;;;;;;;1.27;1.17;;;27.30;43.30;;;-147.20;100.00;58430.41;5095612;28;20135;-10
2022/08/10 01:56:37;;;;;;;0.88;0.88;;;27.30;43.20;;;-147.20;100.00;58430.41;5114571;28;20066;-11
2022/08/10 01:59:11;;;;;;;1.30;1.20;;;27.30;43.20;;;-147.20;100.00;58430.41;5111028;28;20051;-11
2022/08/10 02:01:42;;;;;;;1.40;1.30;;;27.30;43.20;;;-147.20;100.00;58430.41;5114230;28;20042;-11
2022/08/10 02:04:11;;;;;;;1.20;1.10;;;27.30;43.30;;;-147.20;100.00;58430.41;5095846;28;20047;-11
2022/08/10 02:06:46;;;;;;;2.03;1.20;;;27.30;43.30;;;-147.20;100.00;58430.41;5113740;28;20071;-11
2022/08/10 02:09:18;;;;;;;1.10;1.00;;;27.30;43.30;;;-147.20;100.00;58430.41;5114260;28;20063;-11
2022/08/10 02:11:44;;;;;;;1.38;1.10;;;27.30;43.30;;;-147.20;100.00;58430.41;5095686;28;20054;-11
2022/08/10 02:14:13;;;;;;;1.65;1.23;;;27.30;43.30;;;-147.20;100.00;58430.41;5113865;28;20039;-11
2022/08/10 02:16:42;;;;;;;1.27;1.17;;;27.30;43.30;;;-147.20;100.00;58430.41;5113471;28;20055;-11
2022/08/10 02:19:13;;;;;;;1.23;1.13;;;27.30;43.30;;;-147.20;100.00;58430.41;5113637;28;20047;-11
2022/08/10 02:21:39;;;;;;;;;;;27.30;43.30;;;-147.20;100.00;58430.41;5096295;28;20069;-11
2022/08/10 02:24:07;;;;;;;1.35;1.20;;;27.30;43.30;;;-147.20;100.00;58430.41;5094777;28;19980;-11
2022/08/10 02:26:34;;;;;;;1.20;1.10;;;27.30;43.80;;;-147.20;100.00;58430.41;5095602;28;20127;-11
2022/08/10 02:29:01;;;;;;;0.90;0.90;;;27.30;43.30;;;-147.20;100.00;58430.41;5094791;28;20489;-11
2022/08/10 02:31:28;;;;;;;1.63;1.52;;;27.30;43.30;;;-147.20;100.00;58430.41;5113615;28;20127;-11
2022/08/10 02:33:56;;;;;;;1.20;0.98;;;27.30;43.30;;;-147.20;100.00;58430.41;5095353;28;20069;-11
2022/08/10 02:36:25;;;;;;;1.00;1.00;;;27.20;43.20;;;-147.20;100.00;58430.41;5095519;28;20039;-11
2022/08/10 02:38:54;;;;;;;1.35;1.25;;;27.30;43.30;;;-147.20;100.00;58430.41;5095198;28;20065;-11
2022/08/10 02:41:32;;;;;;;1.38;1.27;;;27.30;43.30;;;-147.20;100.00;58430.41;5093137;28;20040;-11
2022/08/10 02:44:06;;;;;;;1.30;1.20;;;27.20;43.20;;;-147.20;100.00;58430.41;5113301;28;20057;-11
2022/08/10 02:46:47;;;;;;;1.10;1.00;;;27.20;43.30;;;-147.20;100.00;58430.41;5113453;28;20044;-11
2022/08/10 02:49:22;;;;;;;1.30;1.20;;;27.20;43.30;;;-147.20;100.00;58430.41;5092940;28;20474;-11
2022/08/10 02:52:02;;;;;;;1.13;1.13;;;27.20;43.20;;;-147.20;100.00;58430.41;5094684;28;20055;-11
2022/08/10 02:54:36;;;;;;;0.90;0.90;;;27.30;43.30;;;-147.20;100.00;58430.41;5113640;28;20056;-11
2022/08/10 02:57:27;;;;;;;1.30;1.20;;;27.30;43.30;;;-147.20;100.00;58430.41;5093892;28;20044;-11
2022/08/10 03:00:00;;;;;;;1.23;1.13;;;27.30;43.40;;;-147.20;100.00;58430.41;5094951;28;20489;-11
2022/08/10 03:02:35;;;;;;;1.23;1.13;;;27.20;43.30;;;-147.20;100.00;58430.41;5113190;28;20092;-10
2022/08/10 03:05:12;;;;;;;1.05;1.00;;;27.20;43.30;;;-147.20;100.00;58430.41;5095221;28;20047;-11
2022/08/10 03:07:57;;;;;;;1.17;1.08;;;27.20;43.30;;;-147.20;100.00;58430.41;5113406;28;20051;-11
2022/08/10 03:10:40;;;;;;;2.80;1.20;;;27.20;43.30;;;-147.20;100.00;58430.41;5094735;28;20100;-11
2022/08/10 03:13:08;;;;;;;1.35;1.17;;;27.20;43.30;;;-147.20;100.00;58430.41;5094745;28;20047;-11
2022/08/10 03:15:36;;;;;;;2.45;1.40;;;27.20;43.30;;;-147.20;100.00;58430.41;5112891;28;20051;-11
2022/08/10 03:18:04;;;;;;;1.08;1.00;;;27.20;43.30;;;-147.20;100.00;58430.41;5112742;28;20044;-11
2022/08/10 03:20:34;;;;;;;1.85;1.20;;;27.20;43.30;;;-147.20;100.00;58430.41;5092874;28;20044;-11
2022/08/10 03:23:04;;;;;;;1.17;1.08;;;27.20;43.30;;;-147.20;100.00;58430.41;5095058;28;20044;-11
2022/08/10 03:25:31;;;;;;;1.75;1.08;;;27.20;43.40;;;-147.20;100.00;58430.41;5094507;28;20059;-11
2022/08/10 03:27:58;;;;;;;1.30;1.20;;;27.20;43.30;;;-147.20;100.00;58430.41;5094519;28;20104;-11
2022/08/10 03:30:25;;;;;;;1.48;1.33;;;27.20;43.40;;;-147.20;100.00;58430.41;5112609;28;20056;-11
2022/08/10 03:32:52;;;;;;;1.30;1.20;;;27.20;43.40;;;-147.20;100.00;58430.41;5112755;28;20097;-11
2022/08/10 03:35:20;;;;;;;1.30;1.00;;;27.20;43.40;;;-147.20;100.00;58430.41;5113132;28;20127;-11
2022/08/10 03:37:46;;;;;;;1.60;1.30;;;27.20;43.40;;;-147.20;100.00;58430.41;5098132;28;20039;-11
2022/08/10 03:40:12;;;;;;;1.02;1.00;;;27.20;43.40;;;-147.20;100.00;58430.41;5097839;28;20048;-11
2022/08/10 03:42:39;;;;;;;1.40;1.10;;;27.20;43.30;;;-147.20;100.00;58430.41;5115977;28;20059;-11
2022/08/10 03:45:06;;;;;;;0.77;0.77;;;27.20;43.40;;;-147.20;100.00;58430.41;5098020;28;20120;-11
2022/08/10 03:47:36;;;;;;;1.25;1.15;;;27.20;43.40;;;-147.20;100.00;58430.41;5097868;28;20050;-11
2022/08/10 03:50:03;;;;;;;1.30;1.20;;;27.20;43.40;;;-147.20;100.00;58430.41;5116254;28;20547;-11
2022/08/10 03:52:29;;;;;;;1.35;1.20;;;27.20;43.40;;;-147.20;100.00;58430.41;5116343;28;20047;-11
2022/08/10 03:54:56;;;;;;;1.05;1.02;;;27.10;43.30;;;-147.20;100.00;58430.41;5116119;28;20047;-11
2022/08/10 03:57:22;;;;;;;1.17;1.08;;;27.20;43.40;;;-147.20;100.00;58430.41;5097680;28;20074;-11
2022/08/10 03:59:49;;;;;;;1.15;1.05;;;27.20;43.40;;;-147.20;100.00;58430.41;5116053;28;20074;-11
2022/08/10 04:02:16;;;;;;;1.50;1.20;;;27.20;43.40;;;-147.20;100.00;58430.41;5097503;28;20454;-11
2022/08/10 04:04:43;;;;;;;1.20;1.10;;;27.20;43.30;;;-147.20;100.00;58430.41;5080042;28;20903;-11
2022/08/10 04:07:09;;;;;;;1.30;1.20;;;27.20;43.30;;;-147.20;100.00;58430.41;5115848;28;20047;-11
2022/08/10 04:09:38;;;;;;;1.08;0.98;;;27.20;43.30;;;-147.20;100.00;58430.41;5095900;28;20094;-11
2022/08/10 04:12:04;;;;;;;1.45;1.10;;;27.20;43.30;;;-147.20;100.00;58430.41;5115758;28;20142;-11
2022/08/10 04:14:30;;;;;;;1.48;1.20;;;27.20;43.20;;;-147.20;100.00;58430.41;5115514;28;20051;-11
2022/08/10 04:16:56;;;;;;;0.95;0.95;;;27.20;43.20;;;-147.20;100.00;58430.41;5115598;28;20114;-11
2022/08/10 04:19:26;;;;;;;1.20;1.10;;;27.20;43.20;;;-147.20;100.00;58430.41;5115727;28;20130;-11
2022/08/10 04:22:13;;;;;;;2.35;1.10;;;27.30;43.30;;;-147.20;100.00;58430.41;5097539;28;20043;-11
2022/08/10 04:24:46;;;;;;;1.65;1.05;;;27.30;43.20;;;-147.20;100.00;58430.41;5095586;28;20097;-11
2022/08/10 04:27:13;;;;;;;1.02;1.00;;;27.30;43.20;;;-147.20;100.00;58430.41;5115663;28;20127;-11
2022/08/10 04:29:39;;;;;;;1.30;1.00;;;27.30;43.10;;;-147.20;100.00;58430.41;5095214;28;20075;-11
2022/08/10 04:32:07;;;;;;;1.20;0.93;;;27.40;43.10;;;-147.20;100.00;58430.41;5115674;28;20063;-11
2022/08/10 04:34:35;;;;;;;1.13;1.00;;;27.40;43.00;;;-147.20;100.00;58430.41;5115188;28;20051;-11
2022/08/10 04:37:04;;;;;;;1.38;1.27;;;27.40;43.00;;;-147.20;100.00;58430.41;5095784;28;20056;-11
2022/08/10 04:39:30;;;;;;;1.23;1.13;;;27.40;43.00;;;-147.20;100.00;58430.41;5095328;28;20489;-11
2022/08/10 04:41:56;;;;;;;1.58;1.30;;;27.50;43.00;;;-147.20;100.00;58430.41;5096946;28;20055;-11
2022/08/10 04:44:23;;;;;;;1.30;1.20;;;27.50;42.90;;;-147.20;100.00;58430.41;5095971;28;20055;-11
2022/08/10 04:46:49;;;;;;;1.20;1.10;;;27.60;42.90;;;-147.20;100.00;58430.41;5094777;28;20056;-11
2022/08/10 04:49:14;;;;;;;1.38;1.20;;;27.60;42.80;;;-147.20;100.00;58430.41;5114731;28;20080;-11
2022/08/10 04:51:40;;;;;;;1.42;1.33;;;27.60;42.80;;;-147.20;100.00;58430.41;5115228;28;20056;-11
2022/08/10 04:54:06;;;;;;;1.52;1.25;;;27.70;42.70;;;-147.20;100.00;58430.41;5115271;28;20051;-11
2022/08/10 04:56:34;;;;;;;2.38;1.20;;;27.70;42.70;;;-147.20;100.00;58430.41;5096830;28;20075;-11
2022/08/10 04:59:00;;;;;;;1.05;0.95;;;27.80;42.70;;;-147.20;100.00;58430.41;5115074;28;20067;-11
2022/08/10 05:01:26;;;;;;;1.10;1.00;;;27.70;42.60;;;-147.20;100.00;58430.41;5114841;28;20039;-11
2022/08/10 05:03:52;;;;;;;1.33;1.10;;;27.80;42.60;;;-147.20;100.00;58430.41;5114931;28;20374;-11
2022/08/10 05:06:17;;;;;;;1.10;1.00;;;27.80;42.50;;;-147.20;100.00;58430.41;5115247;28;20100;-11
2022/08/10 05:08:43;;;;;;;1.67;1.15;;;27.90;42.50;;;-147.20;100.00;58430.41;5114931;28;20467;-11
2022/08/10 05:11:09;;;;;;;0.98;0.93;;;27.90;42.40;;;-147.20;100.00;58430.41;5114841;28;20051;-11
2022/08/10 05:13:35;;;;;;;1.92;1.20;;;28.00;42.40;;;-147.20;100.00;58430.41;5114863;28;20401;-11
2022/08/10 05:16:03;;;;;;;1.15;1.10;;;28.00;42.30;;;-147.20;100.00;58430.41;5115056;28;20443;-11
2022/08/10 05:18:29;;;;;;;2.13;1.13;;;28.10;42.20;;;-147.20;100.00;58430.41;5114649;28;20101;-11
2022/08/10 05:20:55;;;;;;;1.35;1.25;;;28.10;42.10;;;-147.20;100.00;58430.41;5114578;28;20506;-11
2022/08/10 05:23:21;;;;;;;1.23;1.13;;;28.20;42.10;;;-147.20;100.00;58430.41;5114599;28;20096;-11
2022/08/10 05:25:47;;;;;;;2.05;1.27;;;28.20;42.00;;;-147.20;100.00;58430.41;5114970;28;20400;-11
2022/08/10 05:28:12;;;;;;;1.17;1.08;;;28.30;42.10;;;-147.20;100.00;58430.41;5114568;28;20043;-11
2022/08/10 05:30:38;;;;;;;1.15;1.10;;;28.30;42.00;;;-147.20;100.00;58430.41;5114601;28;20097;-11
2022/08/10 05:33:04;;;;;;;1.80;1.10;;;28.40;41.90;;;-147.20;100.00;58430.41;5115065;28;20055;-11
2022/08/10 05:35:30;;;;;;;1.33;1.23;;;28.40;41.90;;;-147.20;100.00;58430.41;5114497;28;20051;-11
2022/08/10 05:37:58;;;;;;;1.40;1.13;;;28.50;41.80;;;-147.20;100.00;58430.41;5114422;28;20131;-11
2022/08/10 05:40:24;;;;;;;1.25;1.15;;;28.50;41.70;;;-147.20;100.00;58430.41;5094330;28;20047;-11
2022/08/10 05:42:50;;;;;;;1.10;1.02;;;28.60;41.70;;;-147.20;100.00;58430.41;5096094;28;20520;-11
2022/08/10 05:45:26;;;;;;;1.20;1.05;;;28.70;41.60;;;-147.20;100.00;58430.41;5114590;28;20035;-11
2022/08/10 05:47:52;;;;;;;1.15;1.05;;;28.70;41.60;;;-147.20;100.00;58430.41;5114619;28;20043;-11
2022/08/10 05:50:25;;;;;;;1.55;1.02;;;28.80;41.50;;;-147.20;100.00;58430.41;5114095;28;20050;-11
2022/08/10 05:52:54;;;;;;;1.05;1.00;;;28.80;41.40;;;-147.20;100.00;58430.41;5114318;28;20054;-11
2022/08/10 05:55:22;;;;;;;1.00;0.90;;;28.80;41.30;;;-147.20;100.00;58430.41;5114100;28;20044;-11
2022/08/10 05:57:47;;;;;;;1.23;1.05;;;28.90;41.40;;;-147.20;100.00;58430.41;5114074;28;20121;-11
2022/08/10 06:00:18;;;;;;;1.00;0.90;;;28.90;41.20;;;-147.20;100.00;58430.41;5113840;28;20044;-11
2022/08/10 06:02:50;;;;;;;1.00;0.90;;;29.00;41.20;;;-147.20;100.00;58430.41;5096188;28;20409;-11
2022/08/10 06:05:22;;;;;;;1.35;1.10;;;29.00;41.30;;;-147.20;100.00;58430.41;5114216;28;20051;-11
2022/08/10 06:07:59;;;;;;;0.75;0.75;;;29.00;41.30;;;-147.20;100.00;58430.41;5114277;28;20047;-10
2022/08/10 06:10:28;;;;;;;1.25;1.00;;;29.00;41.20;;;-147.20;100.00;58430.41;5113968;28;20470;-11
2022/08/10 06:15:43;;;;;;;2.05;1.20;;;29.10;41.00;;;-147.20;100.00;58430.41;5098340;28;20489;-8
2022/08/10 06:18:12;;;;;;;1.20;1.10;;;29.20;41.00;;;-147.20;100.00;58430.41;5095320;28;20062;-8
2022/08/10 06:20:38;;;;;;;1.48;1.20;;;29.20;40.90;;;-147.20;100.00;58430.41;5114107;28;20063;-11
2022/08/10 06:23:05;;;;;;;1.50;1.20;;;29.30;40.90;;;-147.20;100.00;58430.41;5114190;28;20040;-11
2022/08/10 06:25:32;;;;;;;1.98;1.20;;;29.30;40.80;;;-147.20;100.00;58430.41;5113646;28;20043;-11
2022/08/10 06:27:59;;;;;;;1.67;1.33;;;29.40;40.80;;;-147.20;100.00;58430.41;5095390;28;20047;-11
2022/08/10 06:30:27;;;;;;;1.08;1.00;;;29.40;40.70;;;-147.20;100.00;58430.41;5113635;28;20040;-11
2022/08/10 06:32:57;;;;;;;1.63;1.05;;;29.40;40.70;;;-147.20;100.00;58430.41;5113841;28;20044;-11
2022/08/10 06:35:28;;;;;;;0.77;0.77;;;29.50;40.70;;;-147.20;100.00;58430.41;5095599;28;20590;-11
2022/08/10 06:37:57;;;;;;;1.30;1.20;;;29.50;40.60;;;-147.20;100.00;58430.41;5095249;28;20055;-11
2022/08/10 06:40:27;;;;;;;1.02;0.93;;;29.50;40.60;;;-147.20;100.00;58430.41;5095091;28;20059;-11
2022/08/10 06:42:55;;;;;;;1.77;1.02;;;29.60;40.60;;;-147.20;100.00;58430.41;5094318;28;20481;-11
2022/08/10 06:45:28;;;;;;;1.08;1.00;;;29.60;40.50;;;-147.20;100.00;58430.41;5095106;28;20526;-11
2022/08/10 06:48:15;;;;;;;1.45;1.10;;;29.60;40.40;;;-147.20;100.00;58430.41;5095294;28;20097;-11
2022/08/10 06:50:47;;;;;;;1.70;1.00;;;29.70;40.40;;;-147.20;100.00;58430.41;5113519;28;20442;-11
2022/08/10 06:53:17;;;;;;;1.38;1.13;;;29.70;40.30;;;-147.20;100.00;58430.41;5113339;28;20055;-11
2022/08/10 06:55:51;;;;;;;0.95;0.88;;;29.80;40.30;;;-147.20;100.00;58430.41;5094754;28;20098;-11
2022/08/10 06:58:20;;;;;;;1.95;1.00;;;29.80;40.20;;;-147.20;100.00;58430.41;5112971;28;20043;-11
2022/08/10 07:00:50;;;;;;;1.10;1.00;;;29.90;40.30;;;-147.20;100.00;58430.41;5112992;28;20063;-11
2022/08/10 07:03:19;;;;;;;1.08;1.00;;;29.90;40.20;;;-147.20;100.00;58430.41;5113218;28;20550;-11
2022/08/10 07:05:48;;;;;;;1.58;1.10;;;29.90;40.10;;;-147.20;100.00;58430.41;5094782;28;20051;-11
2022/08/10 07:08:18;;;;;;;1.55;1.30;;;29.90;40.00;;;-147.20;100.00;58430.41;5094873;28;20043;-11
2022/08/10 07:10:46;;;;;;;1.25;1.15;;;30.00;40.00;;;-147.20;100.00;58430.41;5094305;28;20071;-11
2022/08/10 07:13:15;;;;;;;1.48;1.13;;;30.00;39.90;;;-147.20;100.00;58430.41;5095088;28;20093;-11
2022/08/10 07:15:43;;;;;;;2.08;1.10;;;30.10;40.00;;;-147.20;100.00;58430.41;5094769;28;20131;-11
2022/08/10 07:18:11;;;;;;;0.82;0.82;;;30.10;40.00;;;-147.20;100.00;58430.41;5062165;28;20093;-11
2022/08/10 07:20:37;;;;;;;1.15;0.90;;;30.10;39.90;;;-147.20;100.00;58430.41;5095053;28;20463;-11
2022/08/10 07:23:05;;;;;;;4.63;1.25;;;30.10;39.90;;;-147.20;100.00;58430.41;5112822;28;20485;-11
2022/08/10 07:25:32;;;;;;;1.65;1.30;;;30.10;39.90;;;-147.20;100.00;58430.41;5094517;28;20051;-11
2022/08/10 07:28:01;;;;;;;4.10;1.33;;;30.10;39.80;;;-147.20;100.00;58430.41;5094681;28;21363;-11
2022/08/10 07:30:32;;;;;;;2.28;1.17;;;30.10;39.80;;;-147.20;100.00;58430.41;5112740;28;20078;-11
2022/08/10 07:33:00;;;;;;;1.30;1.00;;;30.20;39.90;;;-147.20;100.00;58430.41;5112709;28;20493;-11
2022/08/10 07:35:28;;;;;;;1.80;1.20;;;30.20;39.90;;;-147.20;100.00;58430.41;5112712;28;20043;-11
2022/08/10 07:37:57;;;;;;;2.28;1.25;;;30.20;39.80;;;-147.20;100.00;58430.41;5092736;28;20048;-11
2022/08/10 07:40:23;;;;;;;1.20;1.10;;;30.20;39.90;;;-147.20;100.00;58430.41;5092734;28;20134;-11
2022/08/10 07:42:57;;;;;;;2.42;1.10;;;30.20;39.80;;;-147.20;100.00;58430.41;5077420;28;20177;-11
2022/08/10 07:45:27;;;;;;;1.75;1.20;;;30.20;39.90;;;-147.20;100.00;58430.41;5094653;28;20060;-10
2022/08/10 07:48:02;;;;;;;1.67;1.30;;;30.10;39.80;;;-147.20;100.00;58430.41;5094277;28;20036;-11
2022/08/10 07:50:32;;;;;;;1.20;1.10;;;30.10;39.90;;;-147.20;100.00;58430.41;5093617;28;20408;-11
2022/08/10 07:53:01;;;;;;;1.08;0.98;;;30.10;39.90;;;-147.20;100.00;58430.41;5112467;28;20052;-11
2022/08/10 07:55:28;;;;;;;2.30;1.15;;;30.10;39.90;;;-147.20;100.00;58430.41;5094063;28;20039;-11
2022/08/10 07:57:57;;;;;;;3.03;1.30;;;30.10;40.00;;;-147.20;100.00;58430.41;5093953;28;20054;-11
2022/08/10 08:00:24;;;;;;;2.08;1.30;;;30.10;40.30;;;-147.20;100.00;58430.41;5090352;28;20461;-11
2022/08/10 08:02:54;;;;;;;3.95;1.45;;;30.00;40.30;;;-147.20;100.00;58430.41;5094018;28;20048;-11
2022/08/10 08:05:24;;;;;;;1.27;1.08;;;30.00;40.40;;;-147.20;100.00;58430.41;5112645;28;20051;-11
2022/08/10 08:07:52;;;;;;;1.40;1.20;;;30.00;40.50;;;-147.20;100.00;58430.41;5094253;28;20097;-11
2022/08/10 08:10:21;;;;;;;1.85;1.13;;;30.00;40.70;;;-147.20;100.00;58430.41;5112825;28;20397;-11
2022/08/10 08:12:48;;;;;;;2.50;1.05;;;30.00;40.70;;;-147.20;100.00;58430.41;5112434;28;20052;-11
2022/08/10 08:15:18;;;;;;;2.50;1.20;;;30.00;40.70;;;-147.20;100.00;58430.41;5093971;28;20048;-11
2022/08/10 08:17:47;;;;;;;5.20;1.40;;;30.00;40.70;;;-147.20;100.00;58430.41;5092493;28;20139;-11
2022/08/10 08:20:16;;;;;;;1.55;1.40;;;30.00;41.20;;;-147.20;100.00;58430.41;5112538;28;20120;-11
2022/08/10 08:22:43;;;;;;;4.28;1.65;;;30.00;41.40;;;-147.20;100.00;58430.41;5113093;28;20051;-11
2022/08/10 08:25:11;;;;;;;3.53;1.20;;;30.00;41.30;;;-147.20;100.00;58430.41;5115663;28;20408;-11
2022/08/10 08:27:40;;;;;;;2.92;1.33;;;29.90;41.30;;;-147.20;100.00;58430.41;5097636;28;20047;-11
2022/08/10 08:30:08;;;;;;;3.92;1.40;;;30.00;41.30;;;-147.20;100.00;58430.41;5096855;28;20055;-11
2022/08/10 08:32:37;;;;;;;3.70;1.33;;;29.90;41.00;;;-147.20;100.00;58430.41;5096890;28;20544;-11
2022/08/10 08:35:16;;;;;;;3.97;1.60;;;29.90;41.80;;;-147.20;100.00;58430.41;5097115;28;20048;-11
2022/08/10 08:37:48;;;;;;;3.00;1.40;;;29.80;41.30;;;-147.20;100.00;58430.41;5078324;28;20044;-11
2022/08/10 08:40:37;;;;;;;4.03;1.88;;;29.80;41.40;;;-147.20;100.00;58430.41;5115266;28;20048;-11
2022/08/10 08:43:44;;;;;;;3.72;1.83;;;29.70;41.40;;;-147.20;100.00;58430.41;5115238;28;20135;-11
2022/08/10 08:46:43;;;;;;;2.33;1.52;;;29.60;41.50;;;-147.20;100.00;58430.41;5115360;28;20127;-10
2022/08/10 08:49:34;;;;;;;2.78;1.60;;;29.60;41.10;;;-147.20;100.00;58430.41;5097063;28;20166;-11
2022/08/10 08:52:17;;;;;;;3.75;1.95;;;29.50;41.10;;;-147.20;100.00;58430.41;5095322;28;20048;-11
2022/08/10 08:55:28;;;;;;;6.65;1.50;;;29.50;41.30;;;-147.20;100.00;58430.41;5096814;28;20105;-11
2022/08/10 08:58:16;;;;;;;4.80;1.60;;;29.40;41.10;;;-147.20;100.00;58430.41;5096111;28;20550;-11
2022/08/10 09:01:14;;;;;;;2.25;1.30;;;29.40;41.10;;;-147.20;100.00;58430.41;5114871;28;20073;-11
2022/08/10 09:04:20;;;;;;;5.00;2.10;;;29.40;41.10;;;-147.20;100.00;58430.41;5096125;28;20849;-11
2022/08/10 09:07:21;;;;;;;3.33;1.60;;;29.30;41.00;;;-147.20;100.00;58430.41;5114511;28;20052;-11
2022/08/10 09:10:37;;;;;;;6.60;1.70;;;29.30;41.00;;;-147.20;100.00;58430.41;5114820;28;20139;-11
2022/08/10 09:13:17;;;;;;;6.03;1.83;;;29.30;41.10;;;-147.20;100.00;58430.41;5114808;28;20127;-11
2022/08/10 09:16:21;;;;;;;4.43;1.70;;;29.30;41.10;;;-147.20;100.00;58430.41;5095867;28;20059;-11
2022/08/10 09:19:07;;;;;;;4.70;1.75;;;29.20;41.10;;;-147.20;100.00;58430.41;5114700;28;20043;-11
2022/08/10 09:22:12;;;;;;;4.32;1.73;;;29.10;41.20;;;-147.20;100.00;58430.41;5096344;28;20047;-11
2022/08/10 09:25:08;;;;;;;7.45;1.92;;;29.10;41.20;;;-147.20;100.00;58430.41;5095027;28;20078;-11
2022/08/10 09:28:05;;;;;;;3.53;1.73;;;29.10;41.20;;;-147.20;100.00;58430.41;5114606;28;20050;-11
2022/08/10 09:30:43;;;;;;;4.47;1.67;;;29.00;41.20;;;-147.20;100.00;58430.41;5114502;28;20520;-11
2022/08/10 09:33:23;;;;;;;3.30;1.50;;;29.00;41.20;;;-147.20;100.00;58430.41;5095973;28;20150;-11
2022/08/10 09:36:16;;;;;;;1.60;1.40;;;29.00;41.10;;;-147.20;100.00;58430.41;5096501;28;20047;-11
2022/08/10 09:39:11;;;;;;;4.78;2.03;;;28.90;41.10;;;-147.20;100.00;58430.41;5095978;28;20281;-11
2022/08/10 09:42:36;;;;;;;1.75;1.33;;;29.00;41.10;;;-147.20;100.00;58430.41;5114280;28;20043;-11
2022/08/10 09:45:26;;;;;;;4.35;1.90;;;28.90;41.20;;;-147.20;100.00;58430.41;5015232;28;20059;-11
2022/08/10 09:48:32;;;;;;;3.45;1.48;;;28.90;41.10;;;-147.20;100.00;58430.41;5114592;28;20036;-11
2022/08/10 09:51:17;;;;;;;5.15;1.45;;;28.90;40.90;;;-147.20;100.00;58430.41;5094145;28;20043;-11
2022/08/10 09:53:59;;;;;;;6.28;1.65;;;28.90;41.00;;;-147.20;100.00;58430.41;5094671;28;20048;-11
2022/08/10 09:56:48;;;;;;;3.85;1.83;;;28.90;41.20;;;-147.20;100.00;58430.41;5095999;28;20050;-11
2022/08/10 09:59:31;;;;;;;6.78;2.08;;;28.80;41.20;;;-147.20;100.00;58430.41;5113757;28;20051;-11
2022/08/10 10:02:26;;;;;;;10.65;2.30;;;28.80;41.10;;;-147.20;100.00;58430.41;5093772;28;20048;-11
2022/08/10 10:05:49;;;;;;;5.82;1.90;;;28.80;41.30;;;-147.20;100.00;58430.41;5114308;28;20142;-11
2022/08/10 10:08:46;;;;;;;10.02;2.47;;;28.80;41.30;;;-147.20;100.00;58430.41;5095638;28;20044;-11
2022/08/10 10:12:06;;;;;;;9.40;2.65;;;28.70;41.20;;;-147.20;100.00;58430.41;5114035;28;20105;-11
2022/08/10 10:15:20;;;;;;;8.20;2.35;;;28.70;41.10;;;-147.20;100.00;58430.41;5113663;28;20090;-11
2022/08/10 10:18:01;;;;;;;9.50;2.13;;;28.70;41.10;;;-147.20;100.00;58430.41;5096252;28;20144;-11
2022/08/10 10:20:41;;;;;;;6.63;2.00;;;28.70;41.10;;;-147.20;100.00;58430.41;5113631;28;20044;-11
2022/08/10 10:23:28;;;;;;;7.80;2.60;;;28.70;41.00;;;-147.20;100.00;58430.41;5095256;28;20058;-11
2022/08/10 10:26:52;;;;;;;7.88;2.20;;;28.70;41.00;;;-147.20;100.00;58430.41;5094770;28;20059;-11
2022/08/10 10:30:03;;;;;;;7.50;2.90;;;28.60;40.90;;;-147.20;100.00;58430.41;5093059;28;20054;-11
2022/08/10 10:33:12;;;;;;;7.35;2.55;;;28.70;41.00;;;-147.20;100.00;58430.41;5094652;28;20138;-11